Time;durP1;ratioP1;P1;durP2;ratioP2;P2;SDS_P1;SDS_P2;PMS_P1;PMS_P2;Temp;Humidity;BMP_temperature;BMP_pressure;BME280_temperature;BME280_humidity;BME280_pressure;Samples;Min_cycle;Max_cycle;Signal;HPM_P1;HPM_P2
2022/11/08 00:01:37;;;;;;;57.23;35.73;;;;;;;10.58;93.60;98123.50;1691620;84;21001;-79
2022/11/08 00:04:08;;;;;;;58.15;36.35;;;;;;;10.55;93.20;98119.16;1704203;83;20972;-79
2022/11/08 00:14:52;;;;;;;56.35;36.15;;;;;;;10.53;93.08;98128.91;1680437;84;21000;-78
2022/11/08 00:17:21;;;;;;;56.60;36.15;;;;;;;10.53;93.22;98127.58;1691698;83;21059;-77
2022/11/08 00:19:48;;;;;;;51.60;35.23;;;;;;;10.55;93.09;98135.05;1691991;84;21044;-77
2022/11/08 00:22:15;;;;;;;54.38;35.05;;;;;;;10.56;93.22;98136.31;1688239;84;21004;-79
2022/11/08 00:24:41;;;;;;;56.30;36.53;;;;;;;10.63;93.63;98135.69;1674333;85;21048;-79
2022/11/08 00:27:13;;;;;;;67.53;37.48;;;;;;;10.70;93.98;98127.13;1691716;83;20981;-79
2022/11/08 00:29:40;;;;;;;55.20;34.67;;;;;;;10.80;94.07;98125.94;1688831;83;21032;-79
2022/11/08 00:32:11;;;;;;;56.40;36.42;;;;;;;10.88;94.06;98131.02;1664764;85;20997;-78
2022/11/08 00:34:37;;;;;;;60.60;37.30;;;;;;;10.91;93.61;98122.99;1694590;83;21399;-78
2022/11/08 00:37:04;;;;;;;62.78;36.98;;;;;;;10.90;93.23;98134.52;1690823;83;21001;-78
2022/11/08 00:39:31;;;;;;;57.30;34.40;;;;;;;10.90;93.03;98131.87;1652038;85;21037;-78
2022/11/08 00:41:58;;;;;;;55.30;35.35;;;;;;;10.89;92.82;98135.88;1686270;83;21040;-78
2022/11/08 00:44:24;;;;;;;60.05;36.03;;;;;;;10.83;92.76;98132.49;1672457;85;21036;-78
2022/11/08 00:46:51;;;;;;;60.12;35.50;;;;;;;10.80;92.74;98137.88;1674446;85;21045;-78
2022/11/08 00:49:19;;;;;;;55.00;35.95;;;;;;;10.78;92.80;98130.88;1688415;83;21047;-78
2022/11/08 00:51:45;;;;;;;58.78;36.70;;;;;;;10.74;92.54;98131.42;1664957;85;21040;-78
2022/11/08 00:54:15;;;;;;;63.50;37.42;;;;;;;10.75;93.15;98133.63;1686904;84;21072;-78
2022/11/08 00:56:42;;;;;;;66.92;40.23;;;;;;;10.77;93.37;98126.05;1687530;84;21371;-78
2022/11/08 00:59:14;;;;;;;61.73;38.13;;;;;;;10.78;93.32;98125.13;1670410;85;21009;-78
2022/11/08 01:01:42;;;;;;;62.58;39.38;;;;;;;10.77;92.88;98127.82;1693183;83;21032;-79
2022/11/08 01:04:11;;;;;;;71.95;43.68;;;;;;;10.71;92.52;98120.05;1669400;84;21089;-78
2022/11/08 01:06:38;;;;;;;62.78;42.45;;;;;;;10.63;92.56;98122.44;1681885;84;21496;-79
2022/11/08 01:09:06;;;;;;;71.80;43.13;;;;;;;10.62;92.94;98119.83;1676987;84;21121;-79
2022/11/08 01:11:33;;;;;;;71.95;43.35;;;;;;;10.59;92.98;98118.13;1686100;84;21052;-79
2022/11/08 01:14:01;;;;;;;68.33;41.75;;;;;;;10.56;92.71;98120.89;1683488;84;21121;-79
2022/11/08 01:16:31;;;;;;;69.05;41.68;;;;;;;10.51;92.39;98119.67;1675175;84;21000;-80
2022/11/08 01:19:00;;;;;;;68.17;41.68;;;;;;;10.45;92.35;98121.61;1688268;83;21060;-79
2022/11/08 01:21:28;;;;;;;63.55;41.42;;;;;;;10.42;92.81;98120.77;1689819;85;21027;-79
2022/11/08 01:23:55;;;;;;;66.57;40.12;;;;;;;10.40;92.96;98121.28;1702114;83;21016;-79
2022/11/08 01:26:26;;;;;;;67.03;40.78;;;;;;;10.40;93.15;98122.60;1706678;83;21087;-79
2022/11/08 01:28:55;;;;;;;70.78;42.10;;;;;;;10.39;92.89;98122.16;1701105;83;20992;-79
2022/11/08 01:31:26;;;;;;;67.65;42.60;;;;;;;10.38;92.86;98126.20;1673847;84;21075;-78
2022/11/08 01:33:53;;;;;;;64.05;40.55;;;;;;;10.35;93.44;98127.16;1674852;85;21069;-79
2022/11/08 01:36:24;;;;;;;66.07;41.18;;;;;;;10.33;93.45;98125.45;1690204;83;20972;-79
2022/11/08 01:38:53;;;;;;;65.50;42.03;;;;;;;10.33;93.30;98118.36;1675971;83;21020;-80
2022/11/08 01:41:23;;;;;;;85.17;46.50;;;;;;;10.33;93.64;98118.84;1693371;83;21463;-79
2022/11/08 01:43:58;;;;;;;82.15;46.55;;;;;;;10.30;93.69;98119.31;1668854;84;20936;-79
2022/11/08 01:46:30;;;;;;;78.30;46.63;;;;;;;10.30;93.74;98115.34;1649450;85;21008;-79
2022/11/08 01:49:19;;;;;;;80.03;49.13;;;;;;;10.30;93.64;98122.44;1668587;84;20983;-80
2022/11/08 01:52:03;;;;;;;81.20;50.20;;;;;;;10.27;93.10;98119.86;1666936;84;21063;-80
2022/11/08 01:54:38;;;;;;;87.37;49.25;;;;;;;10.22;93.07;98128.38;1669526;84;21079;-78
2022/11/08 01:57:10;;;;;;;89.40;50.30;;;;;;;10.17;93.03;98120.53;1669261;84;21067;-79
2022/11/08 01:59:40;;;;;;;75.17;46.85;;;;;;;10.13;93.15;98113.61;1670987;84;21016;-78
2022/11/08 02:02:08;;;;;;;79.62;47.88;;;;;;;10.12;93.18;98118.02;1670995;84;21071;-78
2022/11/08 02:04:37;;;;;;;81.92;47.67;;;;;;;10.12;93.35;98113.16;1664214;84;20993;-79
2022/11/08 02:07:07;;;;;;;81.12;50.00;;;;;;;10.15;93.48;98116.63;1668213;84;21437;-78
2022/11/08 02:09:37;;;;;;;75.37;49.40;;;;;;;10.17;93.41;98116.13;1676594;84;21019;-79
2022/11/08 02:12:05;;;;;;;75.40;46.85;;;;;;;10.19;93.32;98117.85;1676039;84;20995;-78
2022/11/08 02:14:32;;;;;;;72.35;48.10;;;;;;;10.21;93.49;98120.88;1638904;84;21023;-80
2022/11/08 02:16:58;;;;;;;74.90;45.65;;;;;;;10.25;93.79;98122.54;1692420;84;21008;-80
2022/11/08 02:19:42;;;;;;;79.20;45.60;;;;;;;10.29;93.59;98122.00;1674105;84;21079;-80
2022/11/08 02:22:34;;;;;;;73.78;46.60;;;;;;;10.34;93.87;98116.59;1684082;84;20995;-80
2022/11/08 02:25:02;;;;;;;74.77;45.40;;;;;;;10.39;94.18;98116.86;1676329;84;21011;-80
2022/11/08 02:27:28;;;;;;;73.07;44.30;;;;;;;10.47;93.91;98122.45;1637291;86;21043;-79
2022/11/08 02:29:56;;;;;;;68.00;43.80;;;;;;;10.56;94.71;98123.53;1665170;84;21013;-80
2022/11/08 02:32:23;;;;;;;75.25;44.38;;;;;;;10.63;94.34;98125.09;1675185;84;21042;-80
2022/11/08 02:34:56;;;;;;;70.57;44.58;;;;;;;10.70;94.44;98120.49;1657872;85;21015;-80
2022/11/08 02:37:25;;;;;;;74.97;46.23;;;;;;;10.77;94.21;98125.17;1657861;85;21395;-81
2022/11/08 02:39:52;;;;;;;75.90;45.60;;;;;;;10.80;93.87;98132.57;1671266;84;21063;-81
2022/11/08 02:42:19;;;;;;;75.22;47.38;;;;;;;10.76;93.25;98131.39;1691879;84;21019;-81
2022/11/08 02:44:47;;;;;;;79.92;48.08;;;;;;;10.73;93.19;98134.11;1684118;84;21004;-81
2022/11/08 02:47:15;;;;;;;79.03;49.77;;;;;;;10.74;93.53;98136.73;1676788;84;20992;-80
2022/11/08 02:49:41;;;;;;;85.85;49.95;;;;;;;10.73;93.14;98135.00;1671985;84;20992;-80
2022/11/08 02:52:08;;;;;;;79.97;48.98;;;;;;;10.69;92.90;98141.29;1672065;84;21001;-80
2022/11/08 02:54:35;;;;;;;85.55;48.15;;;;;;;10.67;93.31;98132.53;1676808;84;21069;-80
2022/11/08 02:57:02;;;;;;;79.50;48.68;;;;;;;10.77;94.02;98135.77;1685313;84;21035;-79
2022/11/08 02:59:28;;;;;;;85.28;48.58;;;;;;;10.81;93.43;98133.45;1675553;84;21027;-79
2022/11/08 03:01:55;;;;;;;92.92;54.10;;;;;;;10.81;93.21;98136.10;1670827;84;21044;-79
2022/11/08 03:04:21;;;;;;;94.77;56.42;;;;;;;10.75;92.92;98142.44;1688804;84;21042;-79
2022/11/08 03:06:47;;;;;;;95.10;57.00;;;;;;;10.69;92.83;98152.78;1673900;84;21011;-79
2022/11/08 03:09:14;;;;;;;98.62;59.45;;;;;;;10.73;93.82;98148.69;1680092;84;21334;-79
2022/11/08 03:11:40;;;;;;;104.47;59.70;;;;;;;10.72;93.00;98145.64;1676815;84;21012;-79
2022/11/08 03:14:07;;;;;;;104.53;58.78;;;;;;;10.71;93.71;98150.53;1670254;84;21039;-79
2022/11/08 03:16:33;;;;;;;104.45;59.20;;;;;;;10.69;93.71;98156.75;1678441;84;21000;-79
2022/11/08 03:18:59;;;;;;;101.50;59.80;;;;;;;10.69;93.56;98155.87;1685096;84;20967;-78
2022/11/08 03:21:26;;;;;;;104.63;58.52;;;;;;;10.66;93.68;98152.84;1674331;84;21047;-79
2022/11/08 03:23:52;;;;;;;104.72;59.33;;;;;;;10.64;93.70;98153.80;1672392;84;21091;-79
2022/11/08 03:26:19;;;;;;;99.50;59.88;;;;;;;10.58;93.03;98156.16;1678378;84;21445;-80
2022/11/08 03:28:45;;;;;;;105.45;59.83;;;;;;;10.48;92.97;98158.20;1678048;84;20988;-79
2022/11/08 03:31:12;;;;;;;110.90;61.85;;;;;;;10.44;93.31;98161.83;1666403;84;21097;-79
2022/11/08 03:33:39;;;;;;;101.92;58.90;;;;;;;10.40;93.74;98158.81;1672604;84;21071;-78
2022/11/08 03:36:06;;;;;;;106.97;61.63;;;;;;;10.30;93.50;98149.77;1674735;84;20996;-78
2022/11/08 03:38:32;;;;;;;104.38;58.73;;;;;;;10.27;93.98;98152.97;1673056;84;20968;-78
2022/11/08 03:40:59;;;;;;;106.12;60.15;;;;;;;10.25;94.03;98150.80;1669679;85;21008;-78
2022/11/08 03:43:26;;;;;;;104.10;58.33;;;;;;;10.23;93.62;98157.48;1671796;85;21036;-79
2022/11/08 03:45:52;;;;;;;100.02;58.80;;;;;;;10.19;93.57;98157.58;1673937;84;21447;-79
2022/11/08 03:48:19;;;;;;;107.05;60.10;;;;;;;10.13;93.43;98158.63;1690704;83;21015;-79
2022/11/08 03:50:45;;;;;;;100.38;56.73;;;;;;;10.10;93.74;98165.31;1694002;83;20993;-79
2022/11/08 03:53:12;;;;;;;100.45;56.02;;;;;;;10.06;93.86;98160.55;1682092;84;21410;-80
2022/11/08 03:55:38;;;;;;;104.53;56.37;;;;;;;10.02;94.36;98162.38;1691344;83;21040;-80
2022/11/08 03:58:04;;;;;;;99.90;60.58;;;;;;;10.02;94.18;98162.38;1671791;85;20998;-80
2022/11/08 04:00:31;;;;;;;100.05;56.63;;;;;;;10.02;94.23;98157.56;1693653;84;21045;-78
2022/11/08 04:03:03;;;;;;;101.35;58.73;;;;;;;10.01;94.32;98157.16;1690899;84;21023;-79
2022/11/08 04:05:31;;;;;;;99.52;55.40;;;;;;;10.00;94.35;98158.03;1669626;85;21022;-78
2022/11/08 04:08:00;;;;;;;97.02;55.10;;;;;;;10.00;94.84;98162.89;1685241;84;21455;-80
2022/11/08 04:10:26;;;;;;;95.87;54.95;;;;;;;10.01;94.59;98162.45;1690462;83;21113;-79
2022/11/08 04:15:38;;;;;;;91.32;48.95;;;;;;;10.02;94.79;98162.86;1685507;84;21005;-80
2022/11/08 04:23:36;;;;;;;87.33;49.30;;;;;;;10.06;94.71;98171.59;1695538;83;21018;-80
2022/11/08 04:26:07;;;;;;;93.25;48.92;;;;;;;10.08;94.92;98168.47;1694034;83;21001;-79
2022/11/08 04:28:36;;;;;;;86.08;49.35;;;;;;;10.12;94.98;98164.36;1689895;83;20955;-79
2022/11/08 04:31:10;;;;;;;84.10;47.38;;;;;;;10.17;95.34;98169.09;1658123;85;21464;-79
2022/11/08 04:33:36;;;;;;;79.93;46.00;;;;;;;10.24;95.19;98175.55;1704200;83;21008;-79
2022/11/08 04:36:07;;;;;;;77.40;44.83;;;;;;;10.29;95.53;98174.53;1660921;85;21061;-79
2022/11/08 04:38:35;;;;;;;72.08;42.17;;;;;;;10.34;95.23;98177.05;1690950;83;20999;-79
2022/11/08 04:41:05;;;;;;;67.80;40.80;;;;;;;10.39;94.91;98173.83;1690479;84;21047;-79
2022/11/08 04:43:32;;;;;;;61.23;38.23;;;;;;;10.35;94.45;98176.61;1685825;83;21092;-79
2022/11/08 04:46:02;;;;;;;71.35;39.33;;;;;;;10.32;94.58;98176.23;1679522;85;21064;-80
2022/11/08 04:48:29;;;;;;;71.33;39.90;;;;;;;10.36;94.88;98175.69;1677717;84;21031;-79
2022/11/08 04:51:08;;;;;;;60.17;37.60;;;;;;;10.35;94.63;98174.84;1682653;84;21434;-79
2022/11/08 04:53:35;;;;;;;60.78;37.00;;;;;;;10.41;95.21;98170.70;1687585;85;21043;-79
2022/11/08 04:56:06;;;;;;;63.78;38.05;;;;;;;10.51;95.78;98175.80;1680510;84;21024;-79
2022/11/08 04:58:40;;;;;;;56.70;35.17;;;;;;;10.62;95.65;98182.11;1674367;84;21407;-78
2022/11/08 05:01:09;;;;;;;50.40;30.88;;;;;;;10.64;95.42;98175.89;1681757;85;20975;-79
2022/11/08 05:03:36;;;;;;;55.85;32.63;;;;;;;10.71;95.19;98183.67;1667534;85;21299;-78
2022/11/08 05:06:07;;;;;;;50.45;31.93;;;;;;;10.65;94.88;98178.06;1683119;85;20989;-78
2022/11/08 05:08:33;;;;;;;50.15;31.75;;;;;;;10.62;94.35;98180.34;1680847;85;21012;-78
2022/11/08 05:11:04;;;;;;;46.33;28.95;;;;;;;10.64;94.90;98179.86;1683046;85;21016;-78
2022/11/08 05:13:31;;;;;;;49.65;29.02;;;;;;;10.69;95.14;98179.28;1676637;85;21037;-78
2022/11/08 05:16:05;;;;;;;51.75;31.17;;;;;;;10.73;94.75;98182.71;1676473;85;21028;-78
2022/11/08 05:18:33;;;;;;;50.03;30.68;;;;;;;10.76;94.74;98176.45;1680520;85;21012;-78
2022/11/08 05:23:48;;;;;;;50.40;31.93;;;;;;;10.83;94.68;98181.55;1672505;85;20953;-77
2022/11/08 05:26:17;;;;;;;50.08;30.62;;;;;;;10.81;94.23;98183.83;1683131;85;20973;-78
2022/11/08 05:28:44;;;;;;;51.42;30.02;;;;;;;10.76;94.06;98180.44;1667495;85;21056;-77
2022/11/08 05:31:11;;;;;;;49.30;31.00;;;;;;;10.76;94.49;98185.73;1660199;85;21420;-77
2022/11/08 05:33:38;;;;;;;53.00;31.35;;;;;;;10.74;94.33;98181.80;1658461;85;21029;-78
2022/11/08 05:36:11;;;;;;;53.20;34.25;;;;;;;10.71;93.95;98192.94;1669917;85;21464;-79
2022/11/08 05:38:39;;;;;;;50.15;31.40;;;;;;;10.69;94.41;98191.66;1670203;85;21085;-79
2022/11/08 05:41:19;;;;;;;49.58;29.65;;;;;;;10.68;94.60;98187.27;1667121;85;21018;-80
2022/11/08 05:43:49;;;;;;;51.60;27.87;;;;;;;10.67;94.08;98190.36;1674191;85;21038;-80
2022/11/08 05:46:18;;;;;;;43.73;27.32;;;;;;;10.62;94.40;98196.25;1675781;85;21041;-79
2022/11/08 05:48:45;;;;;;;41.98;25.70;;;;;;;10.61;94.41;98194.95;1675965;84;20978;-79
2022/11/08 05:51:14;;;;;;;36.83;22.90;;;;;;;10.58;94.30;98195.91;1674336;85;21085;-80
2022/11/08 05:53:41;;;;;;;29.67;18.30;;;;;;;10.52;93.84;98200.94;1685274;84;20960;-79
2022/11/08 05:56:09;;;;;;;32.23;18.92;;;;;;;10.45;93.67;98199.33;1694414;83;20980;-80
2022/11/08 05:58:36;;;;;;;32.20;17.90;;;;;;;10.39;93.76;98199.00;1694549;84;20966;-79
2022/11/08 06:01:10;;;;;;;28.32;16.32;;;;;;;10.37;93.66;98199.50;1692479;85;20953;-79
2022/11/08 06:03:37;;;;;;;28.23;17.95;;;;;;;10.34;93.76;98200.05;1693923;84;20960;-79
2022/11/08 06:06:07;;;;;;;26.55;16.40;;;;;;;10.34;94.14;98195.59;1694030;84;20992;-79
2022/11/08 06:08:34;;;;;;;30.17;16.85;;;;;;;10.30;93.98;98198.78;1676088;85;21454;-79
2022/11/08 06:11:03;;;;;;;26.45;14.80;;;;;;;10.26;94.29;98197.11;1676042;85;21045;-79
2022/11/08 06:13:30;;;;;;;27.25;15.00;;;;;;;10.25;94.18;98199.36;1691276;83;20973;-80
2022/11/08 06:16:00;;;;;;;26.85;14.93;;;;;;;10.24;94.21;98198.95;1694315;84;20985;-79
2022/11/08 06:18:28;;;;;;;28.05;14.40;;;;;;;10.24;94.51;98204.24;1694544;83;20997;-79
2022/11/08 06:20:57;;;;;;;25.55;14.10;;;;;;;10.26;94.45;98201.56;1694425;84;20985;-79
2022/11/08 06:23:23;;;;;;;22.85;13.40;;;;;;;10.27;94.00;98196.67;1693445;84;21403;-79
2022/11/08 06:25:50;;;;;;;25.30;13.60;;;;;;;10.26;93.99;98193.14;1690807;84;20957;-79
2022/11/08 06:28:16;;;;;;;23.62;13.78;;;;;;;10.27;94.05;98198.00;1694280;84;21435;-79
2022/11/08 06:30:43;;;;;;;26.90;14.73;;;;;;;10.27;94.11;98204.18;1692901;83;20973;-79
2022/11/08 06:33:09;;;;;;;25.55;14.85;;;;;;;10.28;93.89;98195.76;1689785;84;20961;-79
2022/11/08 06:35:37;;;;;;;29.20;15.45;;;;;;;10.29;94.12;98203.67;1696633;84;21041;-80
2022/11/08 06:38:04;;;;;;;31.87;16.02;;;;;;;10.34;94.28;98204.02;1692534;85;21038;-82
2022/11/08 06:40:32;;;;;;;30.72;17.45;;;;;;;10.38;94.16;98207.01;1687127;85;20982;-76
2022/11/08 06:42:59;;;;;;;30.12;17.67;;;;;;;10.39;94.13;98200.31;1654724;85;21447;-76
2022/11/08 06:45:27;;;;;;;29.80;17.45;;;;;;;10.43;94.35;98207.31;1677037;85;21037;-75
2022/11/08 06:47:59;;;;;;;26.42;15.43;;;;;;;10.47;94.28;98205.48;1674685;84;21061;-76
2022/11/08 06:50:28;;;;;;;26.25;15.20;;;;;;;10.50;94.12;98208.03;1673372;84;21412;-77
2022/11/08 06:53:01;;;;;;;26.65;15.48;;;;;;;10.52;93.93;98207.56;1693582;84;21032;-76
2022/11/08 06:55:28;;;;;;;25.52;13.80;;;;;;;10.64;93.83;98208.13;1693205;84;21457;-76
2022/11/08 06:57:55;;;;;;;24.52;13.85;;;;;;;10.70;93.74;98211.94;1687040;83;21548;-77
2022/11/08 07:00:22;;;;;;;24.65;14.00;;;;;;;10.77;93.80;98208.67;1697360;83;21024;-75
2022/11/08 07:02:58;;;;;;;22.60;13.83;;;;;;;10.86;93.73;98210.20;1677655;84;20986;-76
2022/11/08 07:05:27;;;;;;;23.73;13.60;;;;;;;10.92;93.80;98210.91;1677400;84;21057;-75
2022/11/08 07:07:57;;;;;;;22.15;13.45;;;;;;;11.04;93.88;98206.19;1673914;85;21031;-75
2022/11/08 07:10:27;;;;;;;23.77;13.48;;;;;;;11.14;94.00;98206.34;1679482;84;21034;-76
2022/11/08 07:13:06;;;;;;;23.85;13.62;;;;;;;11.21;93.67;98207.00;1641972;86;22484;-76
2022/11/08 07:15:34;;;;;;;21.85;12.78;;;;;;;11.35;93.93;98206.16;1690188;83;21056;-76
2022/11/08 07:18:05;;;;;;;21.93;12.98;;;;;;;11.40;93.17;98211.34;1676518;84;21040;-75
2022/11/08 07:20:32;;;;;;;22.22;12.33;;;;;;;11.39;92.64;98216.69;1693612;84;21036;-78
2022/11/08 07:23:00;;;;;;;23.47;13.50;;;;;;;11.46;92.97;98211.63;1693246;84;20981;-78
2022/11/08 07:25:28;;;;;;;25.35;13.05;;;;;;;11.50;92.48;98215.91;1693779;84;21361;-77
2022/11/08 07:28:01;;;;;;;23.67;13.45;;;;;;;11.52;92.53;98223.83;1695867;84;21127;-78
2022/11/08 07:30:28;;;;;;;26.12;14.98;;;;;;;11.48;91.90;98228.36;1673618;84;21045;-77
2022/11/08 07:32:56;;;;;;;25.77;13.70;;;;;;;11.44;91.86;98228.03;1692750;83;21036;-77
2022/11/08 07:35:24;;;;;;;24.90;14.25;;;;;;;11.41;91.66;98234.30;1694552;83;21116;-75
2022/11/08 07:37:50;;;;;;;23.98;14.00;;;;;;;11.38;91.87;98233.05;1691915;84;21051;-74
2022/11/08 07:40:17;;;;;;;27.58;14.47;;;;;;;11.47;92.27;98234.11;1694408;83;21068;-76
2022/11/08 07:42:44;;;;;;;25.95;15.68;;;;;;;11.45;91.65;98233.75;1681889;84;21028;-76
2022/11/08 07:45:11;;;;;;;28.65;15.70;;;;;;;11.46;91.78;98235.52;1691660;84;21446;-74
2022/11/08 07:47:39;;;;;;;27.05;17.05;;;;;;;11.48;91.56;98235.88;1690467;84;20950;-74
2022/11/08 07:50:06;;;;;;;32.45;16.25;;;;;;;11.41;91.08;98238.28;1690465;83;21415;-80
2022/11/08 07:52:33;;;;;;;26.45;15.00;;;;;;;11.42;91.59;98240.02;1656026;85;21439;-80
2022/11/08 07:54:59;;;;;;;31.00;17.70;;;;;;;11.42;91.62;98243.14;1670187;85;21084;-77
2022/11/08 07:57:26;;;;;;;37.50;18.60;;;;;;;11.41;91.03;98244.06;1691881;85;21067;-77
2022/11/08 07:59:53;;;;;;;31.95;18.12;;;;;;;11.38;91.33;98238.36;1689467;84;21001;-78
2022/11/08 08:02:19;;;;;;;36.25;19.87;;;;;;;11.41;91.46;98241.41;1678257;84;20957;-77
2022/11/08 08:04:46;;;;;;;37.00;20.05;;;;;;;11.35;90.85;98237.99;1669621;85;21026;-78
2022/11/08 08:07:12;;;;;;;35.52;19.02;;;;;;;11.38;91.33;98238.84;1663876;85;21069;-77
2022/11/08 08:09:39;;;;;;;41.63;22.27;;;;;;;11.38;91.31;98237.03;1662206;85;21024;-77
2022/11/08 08:12:07;;;;;;;37.65;20.72;;;;;;;11.40;90.87;98236.99;1652833;85;21066;-77
2022/11/08 08:14:33;;;;;;;34.65;20.35;;;;;;;11.38;90.91;98236.19;1678306;83;21055;-76
2022/11/08 08:17:00;;;;;;;39.03;21.30;;;;;;;11.38;90.72;98236.19;1682410;84;21428;-75
2022/11/08 08:19:26;;;;;;;37.98;19.95;;;;;;;11.41;91.04;98237.44;1667401;85;21077;-75
2022/11/08 08:21:53;;;;;;;55.45;27.98;;;;;;;11.44;91.25;98238.65;1665565;85;20957;-76
2022/11/08 08:24:19;;;;;;;53.45;26.23;;;;;;;11.42;90.86;98238.69;1688508;83;21030;-66
2022/11/08 08:26:46;;;;;;;42.00;21.93;;;;;;;11.38;90.84;98242.34;1690532;85;21064;-66
2022/11/08 08:29:12;;;;;;;35.73;20.77;;;;;;;11.38;90.90;98242.34;1679339;84;20935;-67
2022/11/08 08:31:39;;;;;;;38.53;21.12;;;;;;;11.41;91.00;98238.76;1638488;86;21005;-66
2022/11/08 08:34:05;;;;;;;35.80;20.35;;;;;;;11.47;91.11;98242.08;1646628;87;20974;-67
2022/11/08 08:36:34;;;;;;;34.20;18.40;;;;;;;11.52;91.12;98237.98;1687653;84;21055;-67
2022/11/08 08:39:00;;;;;;;33.85;19.62;;;;;;;11.56;90.91;98239.63;1687260;85;21024;-67
2022/11/08 08:41:27;;;;;;;38.10;20.40;;;;;;;11.61;90.38;98242.13;1682857;84;21038;-67
2022/11/08 08:43:54;;;;;;;34.95;19.60;;;;;;;11.64;90.31;98247.81;1675359;85;21002;-67
2022/11/08 08:46:21;;;;;;;40.58;20.48;;;;;;;11.68;90.27;98254.33;1669759;85;21005;-67
2022/11/08 08:48:47;;;;;;;35.20;19.52;;;;;;;11.75;90.39;98244.36;1668473;85;20967;-66
2022/11/08 08:51:14;;;;;;;32.95;18.95;;;;;;;11.81;90.27;98243.31;1668940;84;21135;-67
2022/11/08 08:53:41;;;;;;;31.80;18.60;;;;;;;11.86;90.19;98242.72;1688679;85;20964;-67
2022/11/08 08:56:08;;;;;;;33.23;19.30;;;;;;;11.92;89.92;98245.17;1685441;83;21096;-66
2022/11/08 08:58:34;;;;;;;31.97;18.55;;;;;;;11.99;89.86;98243.20;1690411;83;21011;-66
2022/11/08 09:01:07;;;;;;;27.48;16.55;;;;;;;12.06;89.39;98246.56;1674838;84;21067;-67
2022/11/08 09:03:34;;;;;;;27.62;15.83;;;;;;;12.08;87.99;98248.73;1668838;85;21485;-67
2022/11/08 09:06:02;;;;;;;28.27;16.65;;;;;;;12.16;88.18;98244.02;1689098;85;21007;-67
2022/11/08 09:08:29;;;;;;;29.27;17.12;;;;;;;12.23;87.77;98245.59;1685093;83;21016;-67
2022/11/08 09:10:59;;;;;;;25.80;15.20;;;;;;;12.33;88.42;98254.59;1652024;86;21076;-67
2022/11/08 09:13:33;;;;;;;26.25;15.70;;;;;;;12.40;88.18;98250.34;1644622;85;20984;-68
2022/11/08 09:16:00;;;;;;;24.55;14.93;;;;;;;12.43;86.87;98253.36;1673638;84;21048;-68
2022/11/08 09:18:26;;;;;;;23.65;15.60;;;;;;;12.48;87.55;98247.88;1696371;82;20992;-67
2022/11/08 09:20:56;;;;;;;22.58;13.70;;;;;;;12.50;86.42;98257.55;1693221;85;21012;-67
2022/11/08 09:23:23;;;;;;;24.32;13.85;;;;;;;12.61;87.42;98256.31;1693293;84;20981;-66
2022/11/08 09:26:01;;;;;;;22.80;13.78;;;;;;;12.74;87.07;98262.96;1691243;84;21016;-66
2022/11/08 09:28:32;;;;;;;23.10;14.60;;;;;;;12.86;87.22;98259.01;1684944;85;21398;-67
2022/11/08 09:31:05;;;;;;;22.40;14.75;;;;;;;12.96;86.81;98268.00;1653514;84;21006;-66
2022/11/08 09:33:32;;;;;;;22.77;16.40;;;;;;;13.00;86.17;98259.00;1690642;85;21079;-66
2022/11/08 09:36:05;;;;;;;23.80;14.83;;;;;;;13.13;87.25;98257.65;1684738;85;21710;-67
2022/11/08 09:38:33;;;;;;;21.62;15.20;;;;;;;13.20;86.11;98252.94;1692178;83;21053;-67
2022/11/08 09:41:34;;;;;;;23.05;15.58;;;;;;;13.15;86.34;98255.78;1690815;84;21433;-66
2022/11/08 09:44:22;;;;;;;26.57;16.50;;;;;;;13.09;85.48;98258.67;1688236;82;21051;-66
2022/11/08 09:46:52;;;;;;;28.65;16.85;;;;;;;13.02;85.24;98259.80;1684883;85;21048;-66
2022/11/08 09:49:37;;;;;;;29.42;17.27;;;;;;;13.02;84.93;98258.47;1690217;84;21405;-67
2022/11/08 09:52:05;;;;;;;25.45;16.85;;;;;;;12.98;84.52;98260.83;1690364;85;20985;-74
2022/11/08 09:54:40;;;;;;;27.48;16.80;;;;;;;12.91;84.60;98264.16;1676463;85;21011;-73
2022/11/08 09:57:14;;;;;;;28.52;18.05;;;;;;;12.88;84.55;98261.14;1687717;85;21067;-74
2022/11/08 09:59:55;;;;;;;25.17;16.55;;;;;;;12.77;84.34;98251.34;1675269;85;21048;-72
2022/11/08 10:02:23;;;;;;;29.35;17.42;;;;;;;12.69;84.17;98252.94;1672573;85;21067;-75
2022/11/08 10:05:01;;;;;;;26.77;17.17;;;;;;;12.61;84.46;98256.31;1692989;85;21000;-73
2022/11/08 10:07:36;;;;;;;27.13;17.07;;;;;;;12.55;84.66;98252.09;1670479;84;21030;-74
2022/11/08 10:10:34;;;;;;;29.82;17.77;;;;;;;12.56;84.75;98248.95;1692808;84;21422;-74
2022/11/08 10:13:30;;;;;;;35.13;18.30;;;;;;;12.57;84.72;98242.73;1692341;84;21108;-74
2022/11/08 10:16:11;;;;;;;34.30;17.50;;;;;;;12.57;84.59;98238.75;1669430;84;21000;-73
2022/11/08 10:19:01;;;;;;;28.77;17.17;;;;;;;12.55;84.86;98242.78;1692645;84;21017;-73
2022/11/08 10:21:36;;;;;;;34.73;18.02;;;;;;;12.50;84.45;98233.62;1648263;86;21446;-74
2022/11/08 10:24:10;;;;;;;26.73;18.05;;;;;;;12.54;84.56;98243.68;1666065;85;21021;-73
2022/11/08 10:26:41;;;;;;;;;;;;;;;12.59;84.61;98232.91;1694575;85;20984;-73
2022/11/08 10:29:16;;;;;;;29.32;17.37;;;;;;;12.67;84.77;98229.05;1690814;85;20110;-73
2022/11/08 10:31:46;;;;;;;26.10;16.60;;;;;;;12.74;84.80;98231.05;1691681;85;21021;-73
2022/11/08 10:34:24;;;;;;;28.60;16.55;;;;;;;12.90;84.07;98231.84;1690494;85;20957;-73
2022/11/08 10:36:56;;;;;;;26.42;17.35;;;;;;;12.94;84.06;98226.81;1654198;86;21070;-73
2022/11/08 10:39:26;;;;;;;24.90;15.65;;;;;;;13.08;83.48;98228.97;1670625;85;20995;-74
2022/11/08 10:42:11;;;;;;;23.85;15.25;;;;;;;13.57;84.56;98230.33;1671450;85;21020;-74
2022/11/08 10:44:40;;;;;;;21.02;14.43;;;;;;;14.57;82.10;98217.53;1694928;84;21445;-74
2022/11/08 10:47:26;;;;;;;20.10;15.03;;;;;;;14.96;78.04;98212.77;1690200;84;21032;-74
2022/11/08 10:49:53;;;;;;;20.82;13.58;;;;;;;15.44;79.48;98217.75;1656941;86;21048;-74
2022/11/08 10:52:42;;;;;;;19.42;13.25;;;;;;;16.19;76.27;98215.64;1683335;85;21000;-74
2022/11/08 10:55:26;;;;;;;18.42;12.20;;;;;;;17.09;74.70;98216.94;1684951;84;21017;-74
2022/11/08 10:57:53;;;;;;;16.57;12.07;;;;;;;16.97;74.26;98211.72;1681633;84;21008;-74
2022/11/08 11:00:31;;;;;;;17.60;12.07;;;;;;;16.43;73.43;98211.33;1687692;84;21019;-74
2022/11/08 11:03:03;;;;;;;18.62;12.65;;;;;;;16.00;72.32;98213.86;1705066;83;21020;-74
2022/11/08 11:05:36;;;;;;;17.45;12.43;;;;;;;15.71;73.09;98208.06;1672795;85;20973;-73
2022/11/08 11:08:11;;;;;;;18.32;12.35;;;;;;;15.41;73.32;98202.73;1687105;84;21008;-74
2022/11/08 11:10:42;;;;;;;22.62;11.70;;;;;;;15.16;73.39;98214.53;1701162;83;21417;-73
2022/11/08 11:13:29;;;;;;;15.72;11.25;;;;;;;14.91;73.09;98213.44;1702498;84;21465;-73
2022/11/08 11:16:04;;;;;;;19.35;13.28;;;;;;;14.59;73.60;98216.98;1700285;84;21004;-73
2022/11/08 11:18:37;;;;;;;21.75;12.82;;;;;;;14.37;75.09;98201.41;1684050;84;21036;-73
2022/11/08 11:21:20;;;;;;;19.20;12.63;;;;;;;14.28;75.23;98199.12;1681224;84;21046;-74
2022/11/08 11:24:09;;;;;;;19.65;13.38;;;;;;;14.16;74.64;98199.66;1676500;85;21000;-74
2022/11/08 11:26:44;;;;;;;17.07;11.68;;;;;;;14.08;75.86;98202.63;1679771;84;21017;-73
2022/11/08 11:29:29;;;;;;;16.02;11.30;;;;;;;13.99;76.15;98203.40;1681422;84;20969;-72
2022/11/08 11:32:01;;;;;;;17.45;11.35;;;;;;;13.97;76.62;98203.94;1681077;84;21013;-73
2022/11/08 11:34:42;;;;;;;15.58;10.13;;;;;;;13.80;76.40;98201.06;1692210;84;21059;-73
2022/11/08 11:37:23;;;;;;;15.13;10.43;;;;;;;13.62;75.95;98200.84;1644009;85;21001;-73
2022/11/08 11:40:14;;;;;;;18.42;10.63;;;;;;;13.50;76.83;98203.99;1690780;83;21028;-72
2022/11/08 11:43:08;;;;;;;17.73;10.72;;;;;;;13.46;77.15;98205.40;1692325;84;21037;-73
2022/11/08 11:46:04;;;;;;;16.17;11.08;;;;;;;13.42;77.47;98201.11;1687459;83;21013;-73
2022/11/08 11:48:48;;;;;;;16.30;11.18;;;;;;;13.39;77.31;98199.03;1665933;85;20988;-72
2022/11/08 11:51:15;;;;;;;;;;;;;;;13.28;77.72;98195.44;1688539;84;20982;-72